EUFO2: Eufaula Lake

Data processed at Mon Apr 23 2018 22:09


All information presented herein is the property of the government of the United States of America and may be revised or deleted at any time without prior notice.
Dissemination of this information without the expressed written consent of the Public Affairs Office, Tulsa District U.S. Army Corps of Engineers is strictly prohibited.
These data are gathered electronically and, as presented, have not undergone any form of quality control. These data are not guaranteed to be valid or correct.
Go to home page.
Go to station list.

Upstream stations:

Downstream station:
Previous Day
Next Day
Current Day
    
SHEF ID:       EUFO2     Eufaula Lake
STATION TYPE:  RESERVOIR
Normal Pool:  Bottom =   565.00, Top =   585.00

               PRECIP ELEVATION   STORAGE   TW-ELEV    INFLOW   RELEASE  AIR-TEMP  WIND-DIRWIND-SPEED REL-HUMID SOLAR-RAD   VOLTAGE  BAT-LOAD
                   in        ft     ac-ft        ft       cfs       cfs         F       deg       mph         %      W/m2      volt      volt
              Ccp-Rev   Ccp-Rev   Ccp-Rev   Ccp-Rev  Regi-Rev  Regi-Rev   Ccp-Rev   Ccp-Rev   Ccp-Rev   Ccp-Rev   Ccp-Rev   Ccp-Rev   Ccp-Rev
(US/Central)
04/23 00:00      0.00    585.45   2237411    482.57      5382         0     54.50    347.30      0.90     91.82     -1.00     13.78     13.53
04/23 01:00      0.00    585.46   2238356    482.57      -901      -901     54.82    343.40      0.93     91.38     -1.00     13.77     13.53
04/23 02:00      0.00    585.47   2239302    482.57      -901      -901     55.27    339.50      0.99     91.64     -1.00     13.77     13.36
04/23 03:00      0.00    585.47   2239302    482.57      -901      -901     55.60    344.10      1.30     88.77     -1.00     13.77     13.53
04/23 04:00      0.00    585.46   2238356    482.57      -901      -901     55.27    342.00      1.92     86.94      0.00     13.77     13.53
04/23 05:00      0.00    585.47   2239302    482.57      -901      -901     55.15    345.60      2.88     86.86     -1.00     13.77     13.53
04/23 06:00      0.00    585.47   2239302    483.45      -901      -901     54.50    339.10      2.47     85.16     -1.00     13.77     13.53
04/23 07:00      0.00    585.45   2237411    486.68      -901      -901     54.05    338.30      1.46     82.77      0.00     13.77     13.53
04/23 08:00      0.00    585.46   2238356    488.50      -901      -901     54.39    340.00      0.99     82.71     29.00     13.77     13.53
04/23 09:00      0.00    585.49   2241193    489.06      -901      -901     54.28    307.70      0.80     85.41     36.00     13.77     13.53
04/23 10:00      0.00    585.49   2241193    488.69      -901      -901     55.83    340.90      0.97     81.07    113.00     13.77     13.53
04/23 11:00      0.00    585.51   2243084    486.53      -901      -901     59.23    338.90      1.26     72.83    438.00     13.77     13.53
04/23 12:00      0.00    585.52   2244030    485.44      -901      -901     61.86    325.00      0.85     66.72    406.00     13.77     13.53
04/23 13:00      0.00    585.52   2244030    484.71      -901      -901     64.83    317.20      0.93     59.04    697.00     13.77     13.53
04/23 14:00      0.00    585.52   2244030    484.18      -901      -901     64.62    332.90      0.92     61.42    700.00     13.77     13.53
04/23 15:00      0.00    585.52   2244030    483.78      -901      -901     68.90    332.00      1.41     49.02    732.00     13.78     13.53
04/23 16:00      0.00    585.52   2244030    483.48      -901      -901     69.12    316.20      2.17     46.51    794.00     13.78     13.53
04/23 17:00      0.00    585.52   2244030    483.23      -901      -901     72.54    344.00      2.14     36.02    675.00     13.78     13.53
04/23 18:00      0.00    585.55   2246867    483.05      -901      -901     73.06    344.00      2.77     36.20    492.00     13.79     13.53
04/23 19:00      0.00    585.56   2247813    482.90      -901      -901     72.54    343.40      2.31     37.85    287.00     13.79     13.42
04/23 20:00      0.00    585.56   2247813    483.50      -901      -901     68.13    342.00      0.49     48.11     82.00     13.79     13.53
04/23 21:00      0.00    585.56   2247813    486.02      -901      -901     65.82    315.10      0.61     51.89      1.00     13.79     13.53
04/23 22:00      ----      ----      ----      ----      ----      ----      ----      ----      ----      ----      ----      ----      ----
04/23 23:00      ----      ----      ----      ----      ----      ----      ----      ----      ----      ----      ----      ----      ----